Terminal Aerodrome Forecast
Issued by NWS Louisville, KY

Home | Current Version | Previous Version | Text Only | Print | Product List | Glossary On
Versions: 1 2 3 4 5 6 7 8 9 10 11 12 13 14 15 16 17 18 19 20 21 22 23 24 25 26 27 28 29 30 31 32
000
FTUS43 KLMK 271704 AAG
TAFSDF
TAF AMD
KSDF 271704Z 2717/2818 15009KT 3SM -TSRA BR BKN018CB BKN100
     FM271900 16008KT 6SM -SHRA BKN025
     FM280000 22010G25KT 3SM -TSRA BKN035CB
     FM280400 VRB06KT P6SM VCSH BKN035
     FM280700 22007KT P6SM BKN015
     FM281500 25012G20KT P6SM SCT025=

USA.gov is the U.S. government's official web portal to all federal, state and local government web resources and services.